createdAt,value
2018-07-05T00:00:41.756Z,0.00
2018-07-05T00:01:41.740Z,0.00
2018-07-05T00:02:41.653Z,0.00
2018-07-05T00:03:41.590Z,0.00
2018-07-05T00:04:41.558Z,0.00
2018-07-05T00:05:41.574Z,0.00
2018-07-05T00:06:41.541Z,0.00
2018-07-05T00:07:41.452Z,0.00
2018-07-05T00:08:41.435Z,0.00
2018-07-05T00:09:41.411Z,0.00
2018-07-05T00:10:41.358Z,0.00
2018-07-05T00:11:41.327Z,0.00
2018-07-05T00:12:41.277Z,0.00
2018-07-05T00:13:41.261Z,0.00
2018-07-05T00:14:41.266Z,0.00
2018-07-05T00:15:41.173Z,0.00
2018-07-05T00:16:41.168Z,0.00
2018-07-05T00:17:41.123Z,0.00
2018-07-05T00:18:41.058Z,0.00
2018-07-05T00:19:41.050Z,0.00
2018-07-05T00:20:41.022Z,0.00
2018-07-05T00:21:40.963Z,0.00
2018-07-05T00:22:40.926Z,0.00
2018-07-05T00:23:40.873Z,0.00
2018-07-05T00:24:40.840Z,0.00
2018-07-05T00:25:40.925Z,0.00
2018-07-05T00:26:40.866Z,0.00
2018-07-05T00:27:40.712Z,0.00
2018-07-05T00:28:40.739Z,0.00
2018-07-05T00:29:40.658Z,0.00
2018-07-05T00:30:40.692Z,0.00
2018-07-05T00:31:40.621Z,0.00
2018-07-05T00:32:40.616Z,0.00
2018-07-05T00:33:40.561Z,0.00
2018-07-05T00:34:40.468Z,0.00
2018-07-05T00:35:40.472Z,0.00
2018-07-05T00:36:40.531Z,0.00
2018-07-05T00:37:40.446Z,0.00
2018-07-05T00:38:40.349Z,0.00
2018-07-05T00:39:40.330Z,0.00
2018-07-05T00:40:40.245Z,0.00
2018-07-05T00:41:40.309Z,0.00
2018-07-05T00:42:40.185Z,0.00
2018-07-05T00:43:40.178Z,0.00
2018-07-05T00:44:40.156Z,0.00
2018-07-05T00:45:40.073Z,0.00
2018-07-05T00:46:40.067Z,0.00
2018-07-05T00:47:40.073Z,0.00
2018-07-05T00:48:39.946Z,0.00
2018-07-05T00:49:39.914Z,0.00
2018-07-05T00:50:39.884Z,0.00
2018-07-05T00:51:39.981Z,0.00
2018-07-05T00:52:39.844Z,0.00
2018-07-05T00:53:40.311Z,0.00
2018-07-05T00:54:39.738Z,0.00
2018-07-05T00:55:39.749Z,0.00
2018-07-05T00:56:39.716Z,0.00
2018-07-05T00:57:39.706Z,0.00
2018-07-05T00:58:39.594Z,0.00
2018-07-05T00:59:39.557Z,0.00
2018-07-05T01:00:39.523Z,0.00
2018-07-05T01:01:39.539Z,0.00
2018-07-05T01:02:39.449Z,0.00
2018-07-05T01:03:39.400Z,0.00
2018-07-05T01:04:39.390Z,0.00
2018-07-05T01:05:39.441Z,0.00
2018-07-05T01:06:39.342Z,0.00
2018-07-05T01:07:39.306Z,0.00
2018-07-05T01:08:39.252Z,0.00
2018-07-05T01:09:39.197Z,0.00
2018-07-05T01:10:39.209Z,0.00
2018-07-05T01:11:50.177Z,0.00
2018-07-05T01:12:39.297Z,0.00
2018-07-05T01:13:39.125Z,0.00
2018-07-05T01:14:49.696Z,0.00
2018-07-05T01:15:39.027Z,0.00
2018-07-05T01:16:38.943Z,0.00
2018-07-05T01:17:38.885Z,0.00
2018-07-05T01:18:38.929Z,0.00
2018-07-05T01:19:38.838Z,0.00
2018-07-05T01:20:38.838Z,0.00
2018-07-05T01:21:38.767Z,0.00
2018-07-05T01:22:38.727Z,0.00
2018-07-05T01:23:38.698Z,0.00
2018-07-05T01:24:38.724Z,0.00
2018-07-05T01:25:38.612Z,0.00
2018-07-05T01:26:38.671Z,0.00
2018-07-05T01:27:38.596Z,0.00
2018-07-05T01:28:38.526Z,0.00
2018-07-05T01:29:38.546Z,0.00
2018-07-05T01:30:38.491Z,0.00
2018-07-05T01:31:38.394Z,0.00
2018-07-05T01:32:38.383Z,0.00
2018-07-05T01:33:38.333Z,0.00
2018-07-05T01:34:38.327Z,0.00
2018-07-05T01:35:38.297Z,0.00
2018-07-05T01:36:38.215Z,0.00
2018-07-05T01:37:38.180Z,0.00
2018-07-05T01:38:38.218Z,0.00
2018-07-05T01:39:38.150Z,0.00
2018-07-05T01:40:38.099Z,0.00
2018-07-05T01:41:38.049Z,0.00
2018-07-05T01:42:38.021Z,0.00
2018-07-05T01:43:37.937Z,0.00
2018-07-05T01:44:38.022Z,0.00
2018-07-05T01:45:37.920Z,0.00
2018-07-05T01:46:37.937Z,0.00
2018-07-05T01:47:37.927Z,0.00
2018-07-05T01:48:37.771Z,0.00
2018-07-05T01:49:37.732Z,0.00
2018-07-05T01:50:37.724Z,0.00
2018-07-05T01:51:37.755Z,0.00
2018-07-05T01:52:37.710Z,0.00
2018-07-05T01:53:37.614Z,0.00
2018-07-05T01:54:37.591Z,0.00
2018-07-05T01:55:37.557Z,0.00
2018-07-05T01:56:37.485Z,0.00
2018-07-05T01:57:37.495Z,0.00
2018-07-05T01:58:37.501Z,0.00
2018-07-05T01:59:37.370Z,0.00
2018-07-05T02:00:37.390Z,0.00
2018-07-05T02:01:37.315Z,0.00
2018-07-05T02:02:37.344Z,0.00
2018-07-05T02:03:37.305Z,0.00
2018-07-05T02:04:37.234Z,0.00
2018-07-05T02:05:37.180Z,0.00
2018-07-05T02:06:37.222Z,0.00
2018-07-05T02:07:37.162Z,0.00
2018-07-05T02:08:37.087Z,0.00
2018-07-05T02:09:37.088Z,0.00
2018-07-05T02:10:37.005Z,0.00
2018-07-05T02:11:37.021Z,0.00
2018-07-05T02:12:36.994Z,0.00
2018-07-05T02:13:36.892Z,0.00
2018-07-05T02:14:36.884Z,0.00
2018-07-05T02:15:36.862Z,0.00
2018-07-05T02:16:36.792Z,0.00
2018-07-05T02:17:36.723Z,0.00
2018-07-05T02:18:36.691Z,0.00
2018-07-05T02:19:36.696Z,0.00
2018-07-05T02:20:36.696Z,0.00
2018-07-05T02:21:36.579Z,0.00
2018-07-05T02:22:36.639Z,0.00
2018-07-05T02:23:36.500Z,0.00
2018-07-05T02:24:48.358Z,0.00
2018-07-05T02:25:36.455Z,0.00
2018-07-05T02:26:36.579Z,0.00
2018-07-05T02:27:36.381Z,0.00
2018-07-05T02:28:37.134Z,0.00
2018-07-05T02:29:36.633Z,0.00
2018-07-05T02:30:36.318Z,0.00
2018-07-05T02:31:36.211Z,0.00
2018-07-05T02:32:36.305Z,0.00
2018-07-05T02:33:36.166Z,0.00
2018-07-05T02:34:36.146Z,0.00
2018-07-05T02:35:36.110Z,0.00
2018-07-05T02:36:36.029Z,0.00
2018-07-05T02:37:36.001Z,0.00
2018-07-05T02:38:35.956Z,0.00
2018-07-05T02:39:35.915Z,0.00
2018-07-05T02:40:36.029Z,4.00
2018-07-05T02:41:35.939Z,4.00
2018-07-05T02:42:35.853Z,0.00
2018-07-05T02:43:35.777Z,0.00
2018-07-05T02:44:35.750Z,4.00
2018-07-05T02:45:35.745Z,4.00
2018-07-05T02:46:35.747Z,0.00
2018-07-05T02:47:35.655Z,4.00
2018-07-05T02:48:35.623Z,4.00
2018-07-05T02:49:35.711Z,4.00
2018-07-05T02:50:35.580Z,8.00
2018-07-05T02:51:35.484Z,4.00
2018-07-05T02:52:35.452Z,8.00
2018-07-05T02:53:35.411Z,8.00
2018-07-05T02:54:35.409Z,12.00
2018-07-05T02:55:35.383Z,8.00
2018-07-05T02:56:35.353Z,8.00
2018-07-05T02:57:35.299Z,8.00
2018-07-05T02:58:35.272Z,12.00
2018-07-05T02:59:35.348Z,16.00
2018-07-05T03:00:35.166Z,16.00
2018-07-05T03:01:35.149Z,16.00
2018-07-05T03:02:35.136Z,20.00
2018-07-05T03:03:35.046Z,20.00
2018-07-05T03:04:35.000Z,20.00
2018-07-05T03:05:34.966Z,24.00
2018-07-05T03:06:35.013Z,24.00
2018-07-05T03:07:34.894Z,28.00
2018-07-05T03:08:34.891Z,28.00
2018-07-05T03:09:34.830Z,32.00
2018-07-05T03:10:34.872Z,36.00
2018-07-05T03:11:34.850Z,44.00
2018-07-05T03:12:34.754Z,52.00
2018-07-05T03:13:34.702Z,60.00
2018-07-05T03:14:34.636Z,68.00
2018-07-05T03:15:34.676Z,76.00
2018-07-05T03:16:34.586Z,80.00
2018-07-05T03:17:34.550Z,84.00
2018-07-05T03:18:34.514Z,88.00
2018-07-05T03:19:34.542Z,92.00
2018-07-05T03:20:34.428Z,96.00
2018-07-05T03:21:34.394Z,104.00
2018-07-05T03:22:34.379Z,108.00
2018-07-05T03:23:34.325Z,112.00
2018-07-05T03:24:34.373Z,116.00
2018-07-05T03:25:34.243Z,120.00
2018-07-05T03:26:34.294Z,132.00
2018-07-05T03:27:34.190Z,140.00
2018-07-05T03:28:34.130Z,152.00
2018-07-05T03:29:34.173Z,160.00
2018-07-05T03:30:34.067Z,172.00
2018-07-05T03:31:34.090Z,188.00
2018-07-05T03:32:34.019Z,208.00
2018-07-05T03:33:33.961Z,232.00
2018-07-05T03:34:33.963Z,256.00
2018-07-05T03:35:33.882Z,280.00
2018-07-05T03:36:33.856Z,312.00
2018-07-05T03:37:33.816Z,344.00
2018-07-05T03:38:33.777Z,376.00
2018-07-05T03:39:33.748Z,404.00
2018-07-05T03:40:33.788Z,440.00
2018-07-05T03:41:33.662Z,468.00
2018-07-05T03:42:33.648Z,496.00
2018-07-05T03:43:33.578Z,520.00
2018-07-05T03:44:33.670Z,528.00
2018-07-05T03:45:33.517Z,516.00
2018-07-05T03:46:33.485Z,500.00
2018-07-05T03:47:33.462Z,504.00
2018-07-05T03:48:33.404Z,532.00
2018-07-05T03:49:33.421Z,564.00
2018-07-05T03:50:33.344Z,592.00
2018-07-05T03:51:33.372Z,620.00
2018-07-05T03:52:33.294Z,652.00
2018-07-05T03:53:33.277Z,672.00
2018-07-05T03:54:33.238Z,676.00
2018-07-05T03:55:33.165Z,668.00
2018-07-05T03:56:33.188Z,664.00
2018-07-05T03:57:33.120Z,656.00
2018-07-05T03:58:33.038Z,652.00
2018-07-05T03:59:33.022Z,640.00
2018-07-05T04:00:33.015Z,616.00
2018-07-05T04:01:32.941Z,604.00
2018-07-05T04:02:32.947Z,600.00
2018-07-05T04:03:32.879Z,608.00
2018-07-05T04:04:32.900Z,628.00
2018-07-05T04:05:32.790Z,660.00
2018-07-05T04:06:32.786Z,620.00
2018-07-05T04:07:32.752Z,616.00
2018-07-05T04:08:32.688Z,672.00
2018-07-05T04:09:32.660Z,688.00
2018-07-05T04:10:32.612Z,644.00
2018-07-05T04:11:32.569Z,680.00
2018-07-05T04:12:32.635Z,620.00
2018-07-05T04:13:32.499Z,564.00
2018-07-05T04:14:32.473Z,532.00
2018-07-05T04:15:32.417Z,536.00
2018-07-05T04:16:32.390Z,568.00
2018-07-05T04:17:32.402Z,588.00
2018-07-05T04:18:32.304Z,608.00
2018-07-05T04:19:32.339Z,616.00
2018-07-05T04:20:32.237Z,620.00
2018-07-05T04:21:32.214Z,616.00
2018-07-05T04:22:32.194Z,612.00
2018-07-05T04:23:32.146Z,612.00
2018-07-05T04:24:32.102Z,620.00
2018-07-05T04:25:32.094Z,632.00
2018-07-05T04:26:32.063Z,648.00
2018-07-05T04:27:32.026Z,668.00
2018-07-05T04:28:31.941Z,692.00
2018-07-05T04:29:31.897Z,716.00
2018-07-05T04:30:31.892Z,740.00
2018-07-05T04:31:31.819Z,764.00
2018-07-05T04:32:31.820Z,796.00
2018-07-05T04:33:31.747Z,824.00
2018-07-05T04:34:31.719Z,844.00
2018-07-05T04:35:31.678Z,868.00
2018-07-05T04:36:31.642Z,888.00
2018-07-05T04:37:31.630Z,908.00
2018-07-05T04:38:31.560Z,924.00
2018-07-05T04:39:31.536Z,944.00
2018-07-05T04:40:31.492Z,964.00
2018-07-05T04:41:31.449Z,992.00
2018-07-05T04:42:31.523Z,1024.00
2018-07-05T04:43:31.395Z,1068.00
2018-07-05T04:44:31.371Z,1116.00
2018-07-05T04:45:31.310Z,1180.00
2018-07-05T04:46:31.287Z,1272.00
2018-07-05T04:47:31.283Z,1392.00
2018-07-05T04:48:31.225Z,1548.00
2018-07-05T04:49:31.161Z,1756.00
2018-07-05T04:50:31.119Z,1988.00
2018-07-05T04:51:31.092Z,2224.00
2018-07-05T04:52:31.059Z,2500.00
2018-07-05T04:53:31.035Z,2788.00
2018-07-05T04:54:31.013Z,3072.00
2018-07-05T04:55:30.967Z,3416.00
2018-07-05T04:56:30.910Z,3796.00
2018-07-05T04:57:30.867Z,4172.00
2018-07-05T04:58:30.869Z,4504.00
2018-07-05T04:59:30.800Z,4832.00
2018-07-05T05:00:30.749Z,5144.00
2018-07-05T05:01:30.721Z,5440.00
2018-07-05T05:02:30.717Z,5680.00
2018-07-05T05:03:30.672Z,5908.00
2018-07-05T05:04:30.614Z,6172.00
2018-07-05T05:05:30.564Z,6368.00
2018-07-05T05:06:30.530Z,6564.00
2018-07-05T05:07:30.507Z,6760.00
2018-07-05T05:08:30.595Z,6896.00
2018-07-05T05:09:30.433Z,6844.00
2018-07-05T05:10:30.394Z,6736.00
2018-07-05T05:11:30.338Z,6564.00
2018-07-05T05:12:30.301Z,6376.00
2018-07-05T05:13:30.306Z,6204.00
2018-07-05T05:14:30.257Z,6108.00
2018-07-05T05:15:30.221Z,6164.00
2018-07-05T05:16:30.164Z,6356.00
2018-07-05T05:17:30.121Z,6664.00
2018-07-05T05:18:30.108Z,7108.00
2018-07-05T05:19:30.040Z,7624.00
2018-07-05T05:20:30.024Z,8092.00
2018-07-05T05:21:29.991Z,8488.00
2018-07-05T05:22:29.936Z,8732.00
2018-07-05T05:23:29.917Z,8936.00
2018-07-05T05:24:29.877Z,9112.00
2018-07-05T05:25:29.821Z,9180.00
2018-07-05T05:26:29.839Z,9048.00
2018-07-05T05:27:29.751Z,8572.00
2018-07-05T05:28:29.741Z,7944.00
2018-07-05T05:29:29.701Z,7428.00
2018-07-05T05:30:29.640Z,7080.00
2018-07-05T05:31:29.621Z,6924.00
2018-07-05T05:32:29.592Z,6888.00
2018-07-05T05:33:29.559Z,6876.00
2018-07-05T05:34:29.508Z,6976.00
2018-07-05T05:35:29.481Z,7148.00
2018-07-05T05:36:29.421Z,7372.00
2018-07-05T05:37:29.394Z,7660.00
2018-07-05T05:38:29.391Z,7948.00
2018-07-05T05:39:29.310Z,8176.00
2018-07-05T05:40:29.285Z,8376.00
2018-07-05T05:41:29.255Z,8556.00
2018-07-05T05:42:29.227Z,8752.00
2018-07-05T05:43:29.181Z,8976.00
2018-07-05T05:44:29.128Z,9160.00
2018-07-05T05:45:29.141Z,9320.00
2018-07-05T05:46:29.078Z,9396.00
2018-07-05T05:47:29.022Z,9420.00
2018-07-05T05:48:29.030Z,9416.00
2018-07-05T05:49:28.959Z,9400.00
2018-07-05T05:50:28.916Z,9432.00
2018-07-05T05:51:28.896Z,9452.00
2018-07-05T05:52:28.859Z,9428.00
2018-07-05T05:53:28.828Z,9408.00
2018-07-05T05:54:28.772Z,9348.00
2018-07-05T05:55:28.751Z,9396.00
2018-07-05T05:56:28.719Z,10008.00
2018-07-05T05:57:28.653Z,10884.00
2018-07-05T05:58:28.669Z,11700.00
2018-07-05T05:59:28.630Z,12364.00
2018-07-05T06:00:28.571Z,12836.00
2018-07-05T06:01:28.528Z,13188.00
2018-07-05T06:02:28.490Z,13228.00
2018-07-05T06:03:28.466Z,13280.00
2018-07-05T06:04:28.433Z,13504.00
2018-07-05T06:05:28.377Z,14184.00
2018-07-05T06:06:28.339Z,15276.00
2018-07-05T06:07:28.355Z,17184.00
2018-07-05T06:08:28.313Z,20512.00
2018-07-05T06:09:28.243Z,21664.00
2018-07-05T06:10:28.191Z,24096.00
2018-07-05T06:11:28.187Z,23008.00
2018-07-05T06:12:28.132Z,21760.00
2018-07-05T06:13:28.118Z,23072.00
2018-07-05T06:14:28.065Z,22208.00
2018-07-05T06:15:28.028Z,14092.00
2018-07-05T06:16:28.018Z,11972.00
2018-07-05T06:17:36.116Z,10984.00
2018-07-05T06:18:27.958Z,10020.00
2018-07-05T06:19:27.880Z,8964.00
2018-07-05T06:20:27.850Z,7980.00
2018-07-05T06:21:27.857Z,7380.00
2018-07-05T06:22:27.780Z,7072.00
2018-07-05T06:23:27.765Z,6912.00
2018-07-05T06:24:27.957Z,6828.00
2018-07-05T06:25:27.689Z,6732.00
2018-07-05T06:26:27.635Z,6748.00
2018-07-05T06:27:27.622Z,6764.00
2018-07-05T06:28:27.598Z,6740.00
2018-07-05T06:29:27.538Z,6700.00
2018-07-05T06:30:27.508Z,6704.00
2018-07-05T06:31:27.478Z,6772.00
2018-07-05T06:32:27.431Z,6900.00
2018-07-05T06:33:27.408Z,7012.00
2018-07-05T06:34:27.352Z,7144.00
2018-07-05T06:35:27.327Z,7280.00
2018-07-05T06:36:27.301Z,7436.00
2018-07-05T06:37:27.258Z,7608.00
2018-07-05T06:38:27.285Z,7772.00
2018-07-05T06:39:27.256Z,7912.00
2018-07-05T06:40:27.182Z,8048.00
2018-07-05T06:41:27.112Z,8224.00
2018-07-05T06:42:27.120Z,8440.00
2018-07-05T06:43:27.193Z,8648.00
2018-07-05T06:44:27.029Z,8656.00
2018-07-05T06:45:26.979Z,8556.00
2018-07-05T06:46:26.938Z,8448.00
2018-07-05T06:47:26.966Z,8408.00
2018-07-05T06:48:26.891Z,8396.00
2018-07-05T06:49:26.919Z,8456.00
2018-07-05T06:50:26.823Z,8692.00
2018-07-05T06:51:26.839Z,9008.00
2018-07-05T06:52:26.741Z,9408.00
2018-07-05T06:53:26.710Z,9904.00
2018-07-05T06:54:26.660Z,10384.00
2018-07-05T06:55:26.621Z,10788.00
2018-07-05T06:56:26.598Z,11124.00
2018-07-05T06:57:26.548Z,11508.00
2018-07-05T06:58:26.608Z,11864.00
2018-07-05T06:59:26.482Z,12092.00
2018-07-05T07:00:26.453Z,12188.00
2018-07-05T07:01:26.412Z,12196.00
2018-07-05T07:02:26.402Z,12152.00
2018-07-05T07:03:36.280Z,12040.00
2018-07-05T07:04:26.301Z,11948.00
2018-07-05T07:05:26.262Z,11964.00
2018-07-05T07:06:26.824Z,11984.00
2018-07-05T07:07:26.209Z,11860.00
2018-07-05T07:08:26.184Z,11640.00
2018-07-05T07:09:26.122Z,11552.00
2018-07-05T07:10:26.088Z,12196.00
2018-07-05T07:11:26.085Z,13524.00
2018-07-05T07:12:26.025Z,13188.00
2018-07-05T07:13:25.991Z,12792.00
2018-07-05T07:14:25.983Z,12312.00
2018-07-05T07:15:25.910Z,11460.00
2018-07-05T07:16:25.891Z,10452.00
2018-07-05T07:17:25.851Z,9392.00
2018-07-05T07:18:25.835Z,8516.00
2018-07-05T07:19:25.811Z,7992.00
2018-07-05T07:20:25.758Z,7880.00
2018-07-05T07:21:25.738Z,8012.00
2018-07-05T07:22:25.674Z,8268.00
2018-07-05T07:23:25.642Z,8456.00
2018-07-05T07:24:25.643Z,8584.00
2018-07-05T07:25:25.580Z,8704.00
2018-07-05T07:26:25.548Z,8884.00
2018-07-05T07:27:25.512Z,8924.00
2018-07-05T07:28:25.474Z,9432.00
2018-07-05T07:29:25.453Z,9704.00
2018-07-05T07:30:25.398Z,10012.00
2018-07-05T07:31:25.424Z,10300.00
2018-07-05T07:32:25.337Z,10588.00
2018-07-05T07:33:25.311Z,10856.00
2018-07-05T07:34:25.283Z,11184.00
2018-07-05T07:35:25.220Z,11584.00
2018-07-05T07:36:25.190Z,11928.00
2018-07-05T07:37:25.232Z,12224.00
2018-07-05T07:38:25.147Z,12528.00
2018-07-05T07:39:25.115Z,12776.00
2018-07-05T07:40:25.090Z,13000.00
2018-07-05T07:41:26.494Z,13092.00
2018-07-05T07:42:25.036Z,13136.00
2018-07-05T07:43:24.975Z,13160.00
2018-07-05T07:44:24.973Z,13128.00
2018-07-05T07:45:24.930Z,13096.00
2018-07-05T07:46:24.846Z,13148.00
2018-07-05T07:47:24.818Z,13364.00
2018-07-05T07:48:24.809Z,13808.00
2018-07-05T07:49:24.746Z,14572.00
2018-07-05T07:50:24.823Z,15896.00
2018-07-05T07:51:24.678Z,17248.00
2018-07-05T07:52:24.654Z,17888.00
2018-07-05T07:53:24.653Z,17888.00
2018-07-05T07:54:24.649Z,17696.00
2018-07-05T07:55:24.562Z,17600.00
2018-07-05T07:56:24.542Z,17728.00
2018-07-05T07:57:24.491Z,17888.00
2018-07-05T07:58:24.436Z,18016.00
2018-07-05T07:59:24.383Z,18272.00
2018-07-05T08:00:24.411Z,19456.00
2018-07-05T08:01:24.329Z,25248.00
2018-07-05T08:02:24.323Z,18752.00
2018-07-05T08:03:24.319Z,17504.00
2018-07-05T08:04:24.225Z,17184.00
2018-07-05T08:05:24.210Z,17056.00
2018-07-05T08:06:24.186Z,17088.00
2018-07-05T08:07:24.119Z,17152.00
2018-07-05T08:08:24.141Z,16312.00
2018-07-05T08:09:24.053Z,16108.00
2018-07-05T08:10:24.054Z,15556.00
2018-07-05T08:11:24.047Z,14948.00
2018-07-05T08:12:23.953Z,14624.00
2018-07-05T08:13:24.010Z,14480.00
2018-07-05T08:14:23.888Z,14436.00
2018-07-05T08:15:23.859Z,14224.00
2018-07-05T08:16:23.851Z,13700.00
2018-07-05T08:17:23.802Z,13320.00
2018-07-05T08:18:23.746Z,13068.00
2018-07-05T08:19:23.714Z,12920.00
2018-07-05T08:20:23.730Z,12940.00
2018-07-05T08:21:23.670Z,13088.00
2018-07-05T08:22:23.635Z,13328.00
2018-07-05T08:23:23.573Z,13660.00
2018-07-05T08:24:23.541Z,14416.00
2018-07-05T08:25:23.512Z,15412.00
2018-07-05T08:26:23.495Z,16328.00
2018-07-05T08:27:23.451Z,17224.00
2018-07-05T08:28:23.419Z,17760.00
2018-07-05T08:29:23.379Z,22816.00
2018-07-05T08:30:23.327Z,19616.00
2018-07-05T08:31:23.372Z,20832.00
2018-07-05T08:32:23.278Z,27264.00
2018-07-05T08:33:23.236Z,23840.00
2018-07-05T08:34:23.204Z,32832.00
2018-07-05T08:35:23.182Z,33696.00
2018-07-05T08:36:23.184Z,36736.00
2018-07-05T08:37:23.107Z,39328.00
2018-07-05T08:38:23.080Z,38880.00
2018-07-05T08:39:23.030Z,38176.00
2018-07-05T08:40:23.011Z,32160.00
2018-07-05T08:41:22.996Z,27968.00
2018-07-05T08:42:22.963Z,32416.00
2018-07-05T08:43:22.912Z,26784.00
2018-07-05T08:44:22.871Z,27488.00
2018-07-05T08:45:22.827Z,26368.00
2018-07-05T08:46:22.822Z,26080.00
2018-07-05T08:47:22.803Z,25824.00
2018-07-05T08:48:22.744Z,25440.00
2018-07-05T08:49:22.714Z,26336.00
2018-07-05T08:50:22.682Z,26784.00
2018-07-05T08:51:22.647Z,26272.00
2018-07-05T08:52:22.640Z,24704.00
2018-07-05T08:53:22.576Z,23392.00
2018-07-05T08:54:22.549Z,22144.00
2018-07-05T08:55:22.518Z,20896.00
2018-07-05T08:56:22.494Z,19648.00
2018-07-05T08:57:22.550Z,18464.00
2018-07-05T08:58:22.583Z,17504.00
2018-07-05T08:59:22.400Z,17472.00
2018-07-05T09:00:22.368Z,16992.00
2018-07-05T09:01:22.322Z,16620.00
2018-07-05T09:02:32.236Z,16504.00
2018-07-05T09:03:22.241Z,16512.00
2018-07-05T09:04:22.219Z,16348.00
2018-07-05T09:05:22.285Z,16332.00
2018-07-05T09:06:22.155Z,16084.00
2018-07-05T09:07:22.150Z,16132.00
2018-07-05T09:08:22.075Z,16536.00
2018-07-05T09:09:22.049Z,17728.00
2018-07-05T09:10:22.021Z,18848.00
2018-07-05T09:11:21.989Z,20448.00
2018-07-05T09:12:21.957Z,26432.00
2018-07-05T09:13:21.942Z,34240.00
2018-07-05T09:14:21.879Z,33184.00
2018-07-05T09:15:21.841Z,34368.00
2018-07-05T09:16:21.832Z,36832.00
2018-07-05T09:17:21.804Z,36928.00
2018-07-05T09:18:21.818Z,38144.00
2018-07-05T09:19:21.733Z,29856.00
2018-07-05T09:20:21.682Z,35872.00
2018-07-05T09:21:21.654Z,39008.00
2018-07-05T09:22:21.619Z,41728.00
2018-07-05T09:23:21.739Z,43424.00
2018-07-05T09:24:21.564Z,42144.00
2018-07-05T09:25:32.741Z,37728.00
2018-07-05T09:26:21.487Z,37536.00
2018-07-05T09:27:21.468Z,36256.00
2018-07-05T09:28:21.488Z,31424.00
2018-07-05T09:29:21.395Z,29856.00
2018-07-05T09:30:21.364Z,26880.00
2018-07-05T09:31:21.331Z,25408.00
2018-07-05T09:32:21.331Z,24928.00
2018-07-05T09:33:21.283Z,25952.00
2018-07-05T09:34:21.279Z,25536.00
2018-07-05T09:35:21.209Z,25088.00
2018-07-05T09:36:21.179Z,25184.00
2018-07-05T09:37:21.214Z,25600.00
2018-07-05T09:38:21.153Z,25984.00
2018-07-05T09:39:21.090Z,26208.00
2018-07-05T09:40:21.066Z,26240.00
2018-07-05T09:41:21.033Z,25312.00
2018-07-05T09:42:20.993Z,23840.00
2018-07-05T09:43:20.974Z,22784.00
2018-07-05T09:44:20.943Z,21248.00
2018-07-05T09:45:20.934Z,19840.00
2018-07-05T09:46:20.878Z,18624.00
2018-07-05T09:47:20.855Z,17984.00
2018-07-05T09:48:20.816Z,17856.00
2018-07-05T09:49:20.822Z,17312.00
2018-07-05T09:50:20.739Z,16380.00
2018-07-05T09:51:20.720Z,16240.00
2018-07-05T09:52:20.725Z,16576.00
2018-07-05T09:53:20.680Z,17344.00
2018-07-05T09:54:20.655Z,19008.00
2018-07-05T09:55:20.596Z,20864.00
2018-07-05T09:56:20.551Z,22048.00
2018-07-05T09:57:20.523Z,22656.00
2018-07-05T09:58:20.483Z,22880.00
2018-07-05T09:59:20.444Z,23232.00
2018-07-05T10:00:20.439Z,24224.00
2018-07-05T10:01:20.389Z,25600.00
2018-07-05T10:02:20.341Z,28352.00
2018-07-05T10:03:20.316Z,29760.00
2018-07-05T10:04:20.301Z,30304.00
2018-07-05T10:05:20.269Z,29952.00
2018-07-05T10:06:20.226Z,27616.00
2018-07-05T10:07:20.195Z,25312.00
2018-07-05T10:08:20.187Z,24128.00
2018-07-05T10:09:20.124Z,24128.00
2018-07-05T10:10:20.133Z,24992.00
2018-07-05T10:11:20.078Z,25056.00
2018-07-05T10:12:20.039Z,26848.00
2018-07-05T10:13:20.133Z,27904.00
2018-07-05T10:14:19.984Z,28672.00
2018-07-05T10:15:19.981Z,37824.00
2018-07-05T10:16:19.916Z,41056.00
2018-07-05T10:17:19.880Z,27936.00
2018-07-05T10:18:19.846Z,25824.00
2018-07-05T10:19:19.869Z,23424.00
2018-07-05T10:20:19.825Z,21568.00
2018-07-05T10:21:19.753Z,20384.00
2018-07-05T10:22:19.750Z,20224.00
2018-07-05T10:23:19.709Z,21088.00
2018-07-05T10:24:19.664Z,23424.00
2018-07-05T10:25:19.668Z,26240.00
2018-07-05T10:26:19.590Z,29824.00
2018-07-05T10:27:19.590Z,27072.00
2018-07-05T10:28:19.525Z,27936.00
2018-07-05T10:29:19.508Z,31840.00
2018-07-05T10:30:19.508Z,33024.00
2018-07-05T10:31:19.462Z,32960.00
2018-07-05T10:32:19.401Z,38080.00
2018-07-05T10:33:19.383Z,34272.00
2018-07-05T10:34:19.333Z,37568.00
2018-07-05T10:35:19.331Z,32640.00
2018-07-05T10:36:19.268Z,35584.00
2018-07-05T10:37:19.249Z,41952.00
2018-07-05T10:38:19.226Z,40224.00
2018-07-05T10:39:19.179Z,41600.00
2018-07-05T10:40:19.185Z,42368.00
2018-07-05T10:41:19.119Z,25312.00
2018-07-05T10:42:19.083Z,38944.00
2018-07-05T10:43:19.061Z,42272.00
2018-07-05T10:44:19.050Z,39936.00
2018-07-05T10:45:19.023Z,38912.00
2018-07-05T10:46:19.011Z,37024.00
2018-07-05T10:47:18.956Z,38528.00
2018-07-05T10:48:18.915Z,36224.00
2018-07-05T10:49:18.886Z,35296.00
2018-07-05T10:50:18.844Z,35648.00
2018-07-05T10:51:18.862Z,33760.00
2018-07-05T10:52:18.791Z,33248.00
2018-07-05T10:53:18.763Z,30784.00
2018-07-05T10:54:18.759Z,29440.00
2018-07-05T10:55:18.727Z,27712.00
2018-07-05T10:56:18.705Z,26496.00
2018-07-05T10:57:18.691Z,26080.00
2018-07-05T10:58:18.614Z,26048.00
2018-07-05T10:59:18.589Z,26176.00
2018-07-05T11:00:18.568Z,26592.00
2018-07-05T11:01:18.537Z,27360.00
2018-07-05T11:02:18.530Z,28256.00
2018-07-05T11:03:18.507Z,29600.00
2018-07-05T11:04:18.455Z,31584.00
2018-07-05T11:05:18.432Z,34240.00
2018-07-05T11:06:18.382Z,35648.00
2018-07-05T11:07:18.355Z,31648.00
2018-07-05T11:08:18.345Z,28256.00
2018-07-05T11:09:18.285Z,25696.00
2018-07-05T11:10:18.258Z,24288.00
2018-07-05T11:11:18.243Z,23904.00
2018-07-05T11:12:18.229Z,23520.00
2018-07-05T11:13:18.190Z,23328.00
2018-07-05T11:14:18.146Z,22560.00
2018-07-05T11:15:18.312Z,22496.00
2018-07-05T11:16:18.109Z,22528.00
2018-07-05T11:17:18.046Z,22848.00
2018-07-05T11:18:18.034Z,23168.00
2018-07-05T11:19:17.977Z,23392.00
2018-07-05T11:20:17.933Z,23520.00
2018-07-05T11:21:17.918Z,25728.00
2018-07-05T11:22:17.947Z,24128.00
2018-07-05T11:23:17.896Z,26304.00
2018-07-05T11:24:17.830Z,27360.00
2018-07-05T11:25:17.817Z,26496.00
2018-07-05T11:26:17.768Z,27968.00
2018-07-05T11:27:17.724Z,26688.00
2018-07-05T11:28:17.723Z,25600.00
2018-07-05T11:29:17.682Z,24576.00
2018-07-05T11:30:17.702Z,24032.00
2018-07-05T11:31:17.632Z,23904.00
2018-07-05T11:32:17.580Z,23456.00
2018-07-05T11:33:17.586Z,23648.00
2018-07-05T11:34:17.536Z,23744.00
2018-07-05T11:35:17.543Z,23840.00
2018-07-05T11:36:17.473Z,23936.00
2018-07-05T11:37:17.424Z,23968.00
2018-07-05T11:38:17.414Z,23616.00
2018-07-05T11:39:17.369Z,23168.00
2018-07-05T11:40:17.330Z,23424.00
2018-07-05T11:41:17.312Z,25280.00
2018-07-05T11:42:17.278Z,23808.00
2018-07-05T11:43:17.285Z,24032.00
2018-07-05T11:44:17.212Z,24704.00
2018-07-05T11:45:17.204Z,25312.00
2018-07-05T11:46:17.158Z,26432.00
2018-07-05T11:47:17.125Z,27168.00
2018-07-05T11:48:17.132Z,27904.00
2018-07-05T11:49:17.058Z,29088.00
2018-07-05T11:50:17.072Z,29728.00
2018-07-05T11:51:17.008Z,30496.00
2018-07-05T11:52:16.984Z,31168.00
2018-07-05T11:53:16.941Z,34176.00
2018-07-05T11:54:16.899Z,31808.00
2018-07-05T11:55:16.883Z,32224.00
2018-07-05T11:56:16.841Z,39552.00
2018-07-05T11:57:16.809Z,38432.00
2018-07-05T11:58:16.794Z,37184.00
2018-07-05T11:59:16.741Z,30496.00
2018-07-05T12:00:16.725Z,29216.00
2018-07-05T12:01:16.673Z,29376.00
2018-07-05T12:02:16.663Z,28832.00
2018-07-05T12:03:16.657Z,28672.00
2018-07-05T12:04:16.633Z,29312.00
2018-07-05T12:05:16.580Z,29920.00
2018-07-05T12:06:16.532Z,30176.00
2018-07-05T12:07:16.510Z,30560.00
2018-07-05T12:08:16.526Z,30368.00
2018-07-05T12:09:16.440Z,34720.00
2018-07-05T12:10:16.410Z,31264.00
2018-07-05T12:11:16.378Z,29472.00
2018-07-05T12:12:16.369Z,33632.00
2018-07-05T12:13:16.370Z,32928.00
2018-07-05T12:14:16.311Z,32416.00
2018-07-05T12:15:16.280Z,30304.00